Seiyo Honor — 3FJB9 — position and weather

sailwx.info

Track history (hours):
 
Tides and Currents Weather Stations Pressure Air Temp Water Temp Dewpoint Dewpoint Depression Visibility Wind Speed Wind Dir Waves Ship Positions

Seiyo Honor

Last reported at 2017-Nov-18 04:04 UTC. Time now 2017-Nov-20 02:10 UTC.
Position N 34°54' E 139°24'.

Length 111 m; draft 8.5 m.

Type: Cargo ship. MMSI: 373133000.

Date/timePositionNaut miles runAvg speedWind from/ knotsBaromVisibWave heightAir tempDewpointWater temp
2017-Nov-18 04:04N 34°54' E 139°24'1 9.8
2017-Nov-18 04:00N 34°54' E 139°25'510.0
2017-Nov-18 03:29N 34°57' E 139°30'610.2
2017-Nov-18 02:56N 35°01' E 139°35'410.3
2017-Nov-18 02:30N 35°04' E 139°39'510.5
2017-Nov-18 02:00N 35°07' E 139°44'510.9
2017-Nov-18 01:30N 35°12' E 139°46'510.4
2017-Nov-18 01:00N 35°17' E 139°45'510.3
2017-Nov-18 00:30N 35°22' E 139°42'4 8.9
2017-Nov-18 00:00N 35°26' E 139°42'1 1.5
2017-Nov-17 23:29N 35°27' E 139°41'0 0.0
2017-Nov-17 22:59N 35°27' E 139°41'0 0.0
2017-Nov-17 22:29N 35°27' E 139°41'0 0.0
2017-Nov-17 21:59N 35°27' E 139°41'0 0.0
2017-Nov-17 21:29N 35°27' E 139°41'0 0.0
2017-Nov-17 20:59N 35°27' E 139°41'0 0.0
2017-Nov-17 20:29N 35°27' E 139°41'0 0.0
2017-Nov-17 19:59N 35°27' E 139°41'0 0.0
2017-Nov-17 19:29N 35°27' E 139°41'0 0.0
2017-Nov-17 18:59N 35°27' E 139°41'0 0.0
2017-Nov-17 18:29N 35°27' E 139°41'0 0.0
2017-Nov-17 17:59N 35°27' E 139°41'0 0.0
2017-Nov-17 17:29N 35°27' E 139°41'0 0.0
2017-Nov-17 16:59N 35°27' E 139°41'0 0.0
2017-Nov-17 16:29N 35°27' E 139°41'0 0.0
2017-Nov-17 15:59N 35°27' E 139°41'0 0.0
2017-Nov-17 15:29N 35°27' E 139°41'0 0.0
2017-Nov-17 14:59N 35°27' E 139°41'0 0.0
2017-Nov-17 14:26N 35°27' E 139°41'0 0.0
2017-Nov-17 13:59N 35°27' E 139°41'0 0.0
2017-Nov-17 13:29N 35°27' E 139°41'0 0.0
2017-Nov-17 12:59N 35°27' E 139°41'0 0.0
2017-Nov-17 12:29N 35°27' E 139°41'0 0.0
2017-Nov-17 11:59N 35°27' E 139°41'0 0.0
2017-Nov-17 11:29N 35°27' E 139°41'0 0.9
2017-Nov-17 11:01N 35°27' E 139°42'1 1.9
2017-Nov-17 10:31N 35°26' E 139°43'2 4.5
2017-Nov-17 10:01N 35°27' E 139°45'510.7
2017-Nov-17 09:30N 35°29' E 139°51'611.0
2017-Nov-17 08:58N 35°32' E 139°57'  
2017-Nov-14 19:15N 35°35' E 140°07'0 0.0
2017-Nov-14 18:57N 35°35' E 140°07'0 0.0
2017-Nov-14 18:30N 35°35' E 140°07'0 0.0
2017-Nov-14 17:57N 35°35' E 140°07'  
2017-Nov-11 10:03N 35°35' E 140°07'0 0.0
2017-Nov-11 09:39N 35°35' E 140°07'0 0.0
2017-Nov-11 05:15N 35°35' E 140°07'6 0.2
2017-Nov-10 00:31N 35°33' E 139°60'013.4
2017-Nov-10 00:29N 35°33' E 139°60'612.2
2017-Nov-10 00:00N 35°30' E 139°54'612.1
2017-Nov-09 23:31N 35°26' E 139°48'611.7
2017-Nov-09 23:00N 35°21' E 139°45'611.6
2017-Nov-09 22:30N 35°15' E 139°47'611.9
2017-Nov-09 22:00N 35°09' E 139°46'  
Track history (hours):
 
Tides and Currents Weather Stations Pressure Air Temp Water Temp Dewpoint Dewpoint Depression Visibility Wind Speed Wind Dir Waves Ship Positions

Seiyo Honor

Last reported at 2017-Nov-18 04:04 UTC. Time now 2017-Nov-20 02:10 UTC.
Position N 34°54' E 139°24'.

Length 111 m; draft 8.5 m.

Type: Cargo ship. MMSI: 373133000.

Date/timePositionNaut miles runAvg speedWind from/ knotsBaromVisibWave heightAir tempDewpointWater temp
2017-Nov-18 04:04N 34°54' E 139°24'1 9.8
2017-Nov-18 04:00N 34°54' E 139°25'510.0
2017-Nov-18 03:29N 34°57' E 139°30'610.2
2017-Nov-18 02:56N 35°01' E 139°35'410.3
2017-Nov-18 02:30N 35°04' E 139°39'510.5
2017-Nov-18 02:00N 35°07' E 139°44'510.9
2017-Nov-18 01:30N 35°12' E 139°46'510.4
2017-Nov-18 01:00N 35°17' E 139°45'510.3
2017-Nov-18 00:30N 35°22' E 139°42'4 8.9
2017-Nov-18 00:00N 35°26' E 139°42'1 1.5
2017-Nov-17 23:29N 35°27' E 139°41'0 0.0
2017-Nov-17 22:59N 35°27' E 139°41'0 0.0
2017-Nov-17 22:29N 35°27' E 139°41'0 0.0
2017-Nov-17 21:59N 35°27' E 139°41'0 0.0
2017-Nov-17 21:29N 35°27' E 139°41'0 0.0
2017-Nov-17 20:59N 35°27' E 139°41'0 0.0
2017-Nov-17 20:29N 35°27' E 139°41'0 0.0
2017-Nov-17 19:59N 35°27' E 139°41'0 0.0
2017-Nov-17 19:29N 35°27' E 139°41'0 0.0
2017-Nov-17 18:59N 35°27' E 139°41'0 0.0
2017-Nov-17 18:29N 35°27' E 139°41'0 0.0
2017-Nov-17 17:59N 35°27' E 139°41'0 0.0
2017-Nov-17 17:29N 35°27' E 139°41'0 0.0
2017-Nov-17 16:59N 35°27' E 139°41'0 0.0
2017-Nov-17 16:29N 35°27' E 139°41'0 0.0
2017-Nov-17 15:59N 35°27' E 139°41'0 0.0
2017-Nov-17 15:29N 35°27' E 139°41'0 0.0
2017-Nov-17 14:59N 35°27' E 139°41'0 0.0
2017-Nov-17 14:26N 35°27' E 139°41'0 0.0
2017-Nov-17 13:59N 35°27' E 139°41'0 0.0
2017-Nov-17 13:29N 35°27' E 139°41'0 0.0
2017-Nov-17 12:59N 35°27' E 139°41'0 0.0
2017-Nov-17 12:29N 35°27' E 139°41'0 0.0
2017-Nov-17 11:59N 35°27' E 139°41'0 0.0
2017-Nov-17 11:29N 35°27' E 139°41'0 0.9
2017-Nov-17 11:01N 35°27' E 139°42'1 1.9
2017-Nov-17 10:31N 35°26' E 139°43'2 4.5
2017-Nov-17 10:01N 35°27' E 139°45'510.7
2017-Nov-17 09:30N 35°29' E 139°51'611.0
2017-Nov-17 08:58N 35°32' E 139°57'  
2017-Nov-14 19:15N 35°35' E 140°07'0 0.0
2017-Nov-14 18:57N 35°35' E 140°07'0 0.0
2017-Nov-14 18:30N 35°35' E 140°07'0 0.0
2017-Nov-14 17:57N 35°35' E 140°07'  
2017-Nov-11 10:03N 35°35' E 140°07'0 0.0
2017-Nov-11 09:39N 35°35' E 140°07'0 0.0
2017-Nov-11 05:15N 35°35' E 140°07'6 0.2
2017-Nov-10 00:31N 35°33' E 139°60'013.4
2017-Nov-10 00:29N 35°33' E 139°60'612.2
2017-Nov-10 00:00N 35°30' E 139°54'612.1
2017-Nov-09 23:31N 35°26' E 139°48'611.7
2017-Nov-09 23:00N 35°21' E 139°45'611.6
2017-Nov-09 22:30N 35°15' E 139°47'611.9
2017-Nov-09 22:00N 35°09' E 139°46'  

Dump ship's entire track history